Grimsley, Tennessee
Current Conditions -  °F | °C
As of 1:53 PM on Tuesday 25 Nov 2014 (Local Time) from KCSV Reporting Station
Clear Clear  
Wind Chill: 52°   Ceiling: Unl
Heat Index: 52°   Visibility: 10mi
Dew Point: 23°   Wind: 0mph
Humidity: 32%   Direction: NA
Pressure: 30.07"   Gusts: NA
Location:  36.27°N, 84.98°W
Report Text: KCSV 251953Z AUTO 00000KT 10SM CLR 11/M05 A3007 RMK AO2 SLP182 T01111050
Loading
Personal Weather Stations






























Interactive Weather Map New forecast layout! Learn more

10-Day Weather Forecast

Advertisements
Track Severe Weather on mobile